sensor_id;sensor_type;location;lat;lon;timestamp;temperature;humidity
29777;DHT22;16677;52.224;7.484;2022-09-09T00:02:21;15.40;99.90
29777;DHT22;16677;52.224;7.484;2022-09-09T00:05:04;15.40;1.00
29777;DHT22;16677;52.224;7.484;2022-09-09T00:07:51;15.50;1.00
29777;DHT22;16677;52.224;7.484;2022-09-09T00:10:44;15.60;1.00
29777;DHT22;16677;52.224;7.484;2022-09-09T00:13:30;15.60;1.00
29777;DHT22;16677;52.224;7.484;2022-09-09T00:16:19;15.50;82.20
29777;DHT22;16677;52.224;7.484;2022-09-09T00:19:15;15.50;1.00
29777;DHT22;16677;52.224;7.484;2022-09-09T00:24:38;15.50;99.90
29777;DHT22;16677;52.224;7.484;2022-09-09T00:27:50;15.40;99.90
29777;DHT22;16677;52.224;7.484;2022-09-09T00:30:21;15.50;99.90
29777;DHT22;16677;52.224;7.484;2022-09-09T00:32:54;15.50;1.00
29777;DHT22;16677;52.224;7.484;2022-09-09T00:35:39;15.50;99.90
29777;DHT22;16677;52.224;7.484;2022-09-09T00:41:14;15.50;1.00
29777;DHT22;16677;52.224;7.484;2022-09-09T00:44:53;15.60;1.00
29777;DHT22;16677;52.224;7.484;2022-09-09T00:46:54;15.60;1.00
29777;DHT22;16677;52.224;7.484;2022-09-09T00:52:39;15.50;1.00
29777;DHT22;16677;52.224;7.484;2022-09-09T00:55:25;15.50;81.40
29777;DHT22;16677;52.224;7.484;2022-09-09T00:57:54;15.60;99.90
29777;DHT22;16677;52.224;7.484;2022-09-09T01:00:25;15.60;99.90
29777;DHT22;16677;52.224;7.484;2022-09-09T01:08:48;15.50;99.90
29777;DHT22;16677;52.224;7.484;2022-09-09T01:11:25;15.60;99.90
29777;DHT22;16677;52.224;7.484;2022-09-09T01:14:01;15.50;99.90
29777;DHT22;16677;52.224;7.484;2022-09-09T01:16:31;15.60;99.90
29777;DHT22;16677;52.224;7.484;2022-09-09T01:19:00;15.50;99.90
29777;DHT22;16677;52.224;7.484;2022-09-09T01:22:15;15.60;99.90
29777;DHT22;16677;52.224;7.484;2022-09-09T01:27:37;15.50;99.90
29777;DHT22;16677;52.224;7.484;2022-09-09T01:30:16;15.60;99.90
29777;DHT22;16677;52.224;7.484;2022-09-09T01:32:51;15.50;99.90
29777;DHT22;16677;52.224;7.484;2022-09-09T01:35:42;15.40;99.90
29777;DHT22;16677;52.224;7.484;2022-09-09T01:38:11;15.50;99.90
29777;DHT22;16677;52.224;7.484;2022-09-09T01:40:39;15.40;99.90
29777;DHT22;16677;52.224;7.484;2022-09-09T01:43:06;15.40;99.90
29777;DHT22;16677;52.224;7.484;2022-09-09T01:45:34;15.40;99.90
29777;DHT22;16677;52.224;7.484;2022-09-09T01:48:02;15.30;99.90
29777;DHT22;16677;52.224;7.484;2022-09-09T01:50:29;15.20;99.90
29777;DHT22;16677;52.224;7.484;2022-09-09T01:52:58;15.30;99.90
29777;DHT22;16677;52.224;7.484;2022-09-09T01:55:40;15.20;99.90
29777;DHT22;16677;52.224;7.484;2022-09-09T01:58:31;15.20;99.90
29777;DHT22;16677;52.224;7.484;2022-09-09T02:01:09;15.20;99.90
29777;DHT22;16677;52.224;7.484;2022-09-09T02:03:41;15.30;99.90
29777;DHT22;16677;52.224;7.484;2022-09-09T02:06:26;15.10;99.90
29777;DHT22;16677;52.224;7.484;2022-09-09T02:08:56;15.10;99.90
29777;DHT22;16677;52.224;7.484;2022-09-09T02:11:26;15.00;99.90
29777;DHT22;16677;52.224;7.484;2022-09-09T02:14:00;15.00;99.90
29777;DHT22;16677;52.224;7.484;2022-09-09T02:16:37;15.00;99.90
29777;DHT22;16677;52.224;7.484;2022-09-09T02:19:13;14.90;99.90
29777;DHT22;16677;52.224;7.484;2022-09-09T02:21:42;14.90;99.90
29777;DHT22;16677;52.224;7.484;2022-09-09T02:24:13;14.90;99.90
29777;DHT22;16677;52.224;7.484;2022-09-09T02:26:42;14.90;99.90
29777;DHT22;16677;52.224;7.484;2022-09-09T02:29:20;14.90;99.90
29777;DHT22;16677;52.224;7.484;2022-09-09T02:31:49;14.90;99.90
29777;DHT22;16677;52.224;7.484;2022-09-09T02:34:19;14.90;99.90
29777;DHT22;16677;52.224;7.484;2022-09-09T02:36:48;14.90;99.90
29777;DHT22;16677;52.224;7.484;2022-09-09T02:39:17;15.00;99.90
29777;DHT22;16677;52.224;7.484;2022-09-09T02:41:44;15.00;99.90
29777;DHT22;16677;52.224;7.484;2022-09-09T02:44:15;15.00;99.90
29777;DHT22;16677;52.224;7.484;2022-09-09T02:52:28;15.00;99.90
29777;DHT22;16677;52.224;7.484;2022-09-09T02:55:02;15.10;99.90
29777;DHT22;16677;52.224;7.484;2022-09-09T02:57:33;14.90;99.90
29777;DHT22;16677;52.224;7.484;2022-09-09T03:00:05;15.00;99.90
29777;DHT22;16677;52.224;7.484;2022-09-09T03:02:33;15.10;99.90
29777;DHT22;16677;52.224;7.484;2022-09-09T03:05:03;15.00;99.90
29777;DHT22;16677;52.224;7.484;2022-09-09T03:07:30;15.30;99.90
29777;DHT22;16677;52.224;7.484;2022-09-09T03:09:57;15.20;99.90
29777;DHT22;16677;52.224;7.484;2022-09-09T03:12:27;15.30;99.90
29777;DHT22;16677;52.224;7.484;2022-09-09T03:15:05;15.30;99.90
29777;DHT22;16677;52.224;7.484;2022-09-09T03:17:33;15.30;99.90
29777;DHT22;16677;52.224;7.484;2022-09-09T03:20:02;15.30;99.90
29777;DHT22;16677;52.224;7.484;2022-09-09T03:22:29;15.20;99.90
29777;DHT22;16677;52.224;7.484;2022-09-09T03:24:57;15.20;99.90
29777;DHT22;16677;52.224;7.484;2022-09-09T03:27:23;15.20;99.90
29777;DHT22;16677;52.224;7.484;2022-09-09T03:29:51;15.10;99.90
29777;DHT22;16677;52.224;7.484;2022-09-09T03:32:18;15.10;99.90
29777;DHT22;16677;52.224;7.484;2022-09-09T03:34:45;15.10;99.90
29777;DHT22;16677;52.224;7.484;2022-09-09T03:37:14;15.00;99.90
29777;DHT22;16677;52.224;7.484;2022-09-09T03:39:40;15.10;99.90
29777;DHT22;16677;52.224;7.484;2022-09-09T03:42:07;15.10;99.90
29777;DHT22;16677;52.224;7.484;2022-09-09T03:44:35;15.10;99.90
29777;DHT22;16677;52.224;7.484;2022-09-09T03:47:02;15.10;99.90
29777;DHT22;16677;52.224;7.484;2022-09-09T03:49:28;15.10;99.90
29777;DHT22;16677;52.224;7.484;2022-09-09T03:51:56;15.10;99.90
29777;DHT22;16677;52.224;7.484;2022-09-09T03:54:24;15.10;99.90
29777;DHT22;16677;52.224;7.484;2022-09-09T03:56:51;15.10;99.90
29777;DHT22;16677;52.224;7.484;2022-09-09T03:59:18;15.10;99.90
29777;DHT22;16677;52.224;7.484;2022-09-09T04:01:45;15.10;99.90
29777;DHT22;16677;52.224;7.484;2022-09-09T04:04:13;15.20;99.90
29777;DHT22;16677;52.224;7.484;2022-09-09T04:06:46;15.10;99.90
29777;DHT22;16677;52.224;7.484;2022-09-09T04:09:19;15.20;99.90
29777;DHT22;16677;52.224;7.484;2022-09-09T04:11:46;15.20;99.90
29777;DHT22;16677;52.224;7.484;2022-09-09T04:14:13;15.20;99.90
29777;DHT22;16677;52.224;7.484;2022-09-09T04:16:39;15.20;99.90
29777;DHT22;16677;52.224;7.484;2022-09-09T04:19:10;15.10;99.90
29777;DHT22;16677;52.224;7.484;2022-09-09T04:21:43;15.10;99.90
29777;DHT22;16677;52.224;7.484;2022-09-09T04:24:11;15.10;99.90
29777;DHT22;16677;52.224;7.484;2022-09-09T04:26:38;15.10;99.90
29777;DHT22;16677;52.224;7.484;2022-09-09T04:29:05;15.20;99.90
29777;DHT22;16677;52.224;7.484;2022-09-09T04:31:34;15.20;99.90
29777;DHT22;16677;52.224;7.484;2022-09-09T04:37:10;15.30;99.90
29777;DHT22;16677;52.224;7.484;2022-09-09T04:39:37;15.30;99.90
29777;DHT22;16677;52.224;7.484;2022-09-09T04:42:04;15.30;99.90
29777;DHT22;16677;52.224;7.484;2022-09-09T04:44:31;15.20;99.90
29777;DHT22;16677;52.224;7.484;2022-09-09T04:46:59;15.20;99.90
29777;DHT22;16677;52.224;7.484;2022-09-09T04:49:26;15.20;99.90
29777;DHT22;16677;52.224;7.484;2022-09-09T04:51:53;15.10;99.90
29777;DHT22;16677;52.224;7.484;2022-09-09T04:54:45;15.10;99.90
29777;DHT22;16677;52.224;7.484;2022-09-09T04:57:29;15.10;99.90
29777;DHT22;16677;52.224;7.484;2022-09-09T05:00:33;15.10;99.90
29777;DHT22;16677;52.224;7.484;2022-09-09T05:03:07;15.10;99.90
29777;DHT22;16677;52.224;7.484;2022-09-09T05:05:38;15.00;99.90
29777;DHT22;16677;52.224;7.484;2022-09-09T05:08:23;15.00;99.90
29777;DHT22;16677;52.224;7.484;2022-09-09T05:10:50;15.00;99.90
29777;DHT22;16677;52.224;7.484;2022-09-09T05:13:17;15.00;99.90
29777;DHT22;16677;52.224;7.484;2022-09-09T05:15:54;15.00;99.90
29777;DHT22;16677;52.224;7.484;2022-09-09T05:18:21;15.00;99.90
29777;DHT22;16677;52.224;7.484;2022-09-09T05:20:49;15.00;99.90
29777;DHT22;16677;52.224;7.484;2022-09-09T05:23:17;15.00;99.90
29777;DHT22;16677;52.224;7.484;2022-09-09T05:25:55;15.00;99.90
29777;DHT22;16677;52.224;7.484;2022-09-09T05:28:23;15.00;99.90
29777;DHT22;16677;52.224;7.484;2022-09-09T05:31:02;15.20;99.90
29777;DHT22;16677;52.224;7.484;2022-09-09T05:33:35;15.20;99.90
29777;DHT22;16677;52.224;7.484;2022-09-09T05:36:04;15.30;99.90
29777;DHT22;16677;52.224;7.484;2022-09-09T05:38:33;15.30;99.90
29777;DHT22;16677;52.224;7.484;2022-09-09T05:41:08;15.30;18.70
29777;DHT22;16677;52.224;7.484;2022-09-09T05:43:39;15.20;1.10
29777;DHT22;16677;52.224;7.484;2022-09-09T05:46:27;15.40;1.00
29777;DHT22;16677;52.224;7.484;2022-09-09T05:48:57;15.40;1.00
29777;DHT22;16677;52.224;7.484;2022-09-09T05:51:28;15.40;1.00
29777;DHT22;16677;52.224;7.484;2022-09-09T05:53:58;15.40;1.00
29777;DHT22;16677;52.224;7.484;2022-09-09T05:56:27;15.50;1.00
29777;DHT22;16677;52.224;7.484;2022-09-09T05:58:55;15.50;1.00
29777;DHT22;16677;52.224;7.484;2022-09-09T06:01:31;15.60;1.00
29777;DHT22;16677;52.224;7.484;2022-09-09T06:03:59;15.60;1.00
29777;DHT22;16677;52.224;7.484;2022-09-09T06:06:30;15.70;1.00
29777;DHT22;16677;52.224;7.484;2022-09-09T06:08:57;15.60;1.00
29777;DHT22;16677;52.224;7.484;2022-09-09T06:11:27;15.60;1.00
29777;DHT22;16677;52.224;7.484;2022-09-09T06:13:56;15.60;1.00
29777;DHT22;16677;52.224;7.484;2022-09-09T06:16:25;15.50;1.00
29777;DHT22;16677;52.224;7.484;2022-09-09T06:18:56;15.60;1.00
29777;DHT22;16677;52.224;7.484;2022-09-09T06:21:32;15.50;1.00
29777;DHT22;16677;52.224;7.484;2022-09-09T06:24:00;15.50;1.00
29777;DHT22;16677;52.224;7.484;2022-09-09T06:26:32;15.60;1.00
29777;DHT22;16677;52.224;7.484;2022-09-09T06:29:01;15.60;1.00
29777;DHT22;16677;52.224;7.484;2022-09-09T06:31:32;15.70;1.00
29777;DHT22;16677;52.224;7.484;2022-09-09T06:34:01;15.90;1.00
29777;DHT22;16677;52.224;7.484;2022-09-09T06:36:30;15.90;1.00
29777;DHT22;16677;52.224;7.484;2022-09-09T06:38:58;16.00;1.00
29777;DHT22;16677;52.224;7.484;2022-09-09T06:41:28;16.20;1.00
29777;DHT22;16677;52.224;7.484;2022-09-09T06:43:55;16.30;99.90
29777;DHT22;16677;52.224;7.484;2022-09-09T06:46:25;16.40;1.90
29777;DHT22;16677;52.224;7.484;2022-09-09T06:48:55;16.50;1.00
29777;DHT22;16677;52.224;7.484;2022-09-09T06:51:25;16.60;99.90
29777;DHT22;16677;52.224;7.484;2022-09-09T06:53:57;16.70;5.80
29777;DHT22;16677;52.224;7.484;2022-09-09T06:56:30;16.70;1.00
29777;DHT22;16677;52.224;7.484;2022-09-09T06:58:59;16.70;21.10
29777;DHT22;16677;52.224;7.484;2022-09-09T07:01:32;16.80;99.90
29777;DHT22;16677;52.224;7.484;2022-09-09T07:04:01;17.00;1.00
29777;DHT22;16677;52.224;7.484;2022-09-09T07:06:31;17.00;1.00
29777;DHT22;16677;52.224;7.484;2022-09-09T07:09:01;17.00;99.90
29777;DHT22;16677;52.224;7.484;2022-09-09T07:11:42;17.10;99.90
29777;DHT22;16677;52.224;7.484;2022-09-09T07:14:13;17.10;94.60
29777;DHT22;16677;52.224;7.484;2022-09-09T07:16:42;17.20;1.00
29777;DHT22;16677;52.224;7.484;2022-09-09T07:19:10;17.30;1.00
29777;DHT22;16677;52.224;7.484;2022-09-09T07:21:38;17.30;1.00
29777;DHT22;16677;52.224;7.484;2022-09-09T07:24:07;17.40;68.80
29777;DHT22;16677;52.224;7.484;2022-09-09T07:26:39;17.40;1.00
29777;DHT22;16677;52.224;7.484;2022-09-09T07:29:08;17.40;99.90
29777;DHT22;16677;52.224;7.484;2022-09-09T07:31:37;17.60;94.00
29777;DHT22;16677;52.224;7.484;2022-09-09T07:34:06;17.70;1.00
29777;DHT22;16677;52.224;7.484;2022-09-09T07:36:36;17.70;1.00
29777;DHT22;16677;52.224;7.484;2022-09-09T07:39:07;17.80;1.00
29777;DHT22;16677;52.224;7.484;2022-09-09T07:41:37;18.00;99.90
29777;DHT22;16677;52.224;7.484;2022-09-09T07:44:16;18.40;99.90
29777;DHT22;16677;52.224;7.484;2022-09-09T07:46:44;18.40;99.90
29777;DHT22;16677;52.224;7.484;2022-09-09T07:49:12;18.50;99.90
29777;DHT22;16677;52.224;7.484;2022-09-09T07:51:41;18.30;84.30
29777;DHT22;16677;52.224;7.484;2022-09-09T07:54:11;17.90;99.90
29777;DHT22;16677;52.224;7.484;2022-09-09T07:56:39;17.90;99.90
29777;DHT22;16677;52.224;7.484;2022-09-09T07:59:07;18.30;99.90
29777;DHT22;16677;52.224;7.484;2022-09-09T08:01:40;18.60;21.00
29777;DHT22;16677;52.224;7.484;2022-09-09T08:04:10;19.00;1.00
29777;DHT22;16677;52.224;7.484;2022-09-09T08:06:44;19.20;1.00
29777;DHT22;16677;52.224;7.484;2022-09-09T08:09:11;19.00;1.00
29777;DHT22;16677;52.224;7.484;2022-09-09T08:11:39;19.20;1.00
29777;DHT22;16677;52.224;7.484;2022-09-09T08:14:08;19.10;1.00
29777;DHT22;16677;52.224;7.484;2022-09-09T08:16:38;19.20;1.00
29777;DHT22;16677;52.224;7.484;2022-09-09T08:19:05;19.00;1.00
29777;DHT22;16677;52.224;7.484;2022-09-09T08:21:36;19.00;1.00
29777;DHT22;16677;52.224;7.484;2022-09-09T08:24:04;19.10;1.00
29777;DHT22;16677;52.224;7.484;2022-09-09T08:26:42;18.90;1.00
29777;DHT22;16677;52.224;7.484;2022-09-09T08:29:11;18.80;1.00
29777;DHT22;16677;52.224;7.484;2022-09-09T08:31:45;18.80;1.00
29777;DHT22;16677;52.224;7.484;2022-09-09T08:34:14;18.70;1.00
29777;DHT22;16677;52.224;7.484;2022-09-09T08:36:54;18.70;1.00
29777;DHT22;16677;52.224;7.484;2022-09-09T08:39:21;19.00;1.00
29777;DHT22;16677;52.224;7.484;2022-09-09T08:52:22;19.60;1.00
29777;DHT22;16677;52.224;7.484;2022-09-09T08:54:50;19.60;1.00
29777;DHT22;16677;52.224;7.484;2022-09-09T08:57:22;19.60;1.00
29777;DHT22;16677;52.224;7.484;2022-09-09T08:59:54;19.30;1.00
29777;DHT22;16677;52.224;7.484;2022-09-09T09:02:34;19.10;1.00
29777;DHT22;16677;52.224;7.484;2022-09-09T09:05:13;19.10;1.00
29777;DHT22;16677;52.224;7.484;2022-09-09T09:07:52;19.50;1.00
29777;DHT22;16677;52.224;7.484;2022-09-09T09:15:58;19.30;1.00
29777;DHT22;16677;52.224;7.484;2022-09-09T09:18:26;19.30;1.00
29777;DHT22;16677;52.224;7.484;2022-09-09T09:21:13;19.50;1.00
29777;DHT22;16677;52.224;7.484;2022-09-09T09:24:09;19.70;1.00
29777;DHT22;16677;52.224;7.484;2022-09-09T09:26:39;19.30;1.00
29777;DHT22;16677;52.224;7.484;2022-09-09T09:29:19;19.40;1.00
29777;DHT22;16677;52.224;7.484;2022-09-09T09:31:51;19.40;1.00
29777;DHT22;16677;52.224;7.484;2022-09-09T09:34:19;19.40;1.00
29777;DHT22;16677;52.224;7.484;2022-09-09T09:36:56;19.30;1.00
29777;DHT22;16677;52.224;7.484;2022-09-09T09:39:29;19.30;1.00
29777;DHT22;16677;52.224;7.484;2022-09-09T09:42:17;19.80;1.00
29777;DHT22;16677;52.224;7.484;2022-09-09T09:44:49;19.90;1.00
29777;DHT22;16677;52.224;7.484;2022-09-09T09:47:21;19.80;1.00
29777;DHT22;16677;52.224;7.484;2022-09-09T09:49:59;20.00;1.00
29777;DHT22;16677;52.224;7.484;2022-09-09T09:52:28;20.10;1.00
29777;DHT22;16677;52.224;7.484;2022-09-09T09:54:57;20.00;1.00
29777;DHT22;16677;52.224;7.484;2022-09-09T09:57:33;20.50;1.00
29777;DHT22;16677;52.224;7.484;2022-09-09T10:00:21;20.80;1.00
29777;DHT22;16677;52.224;7.484;2022-09-09T10:02:49;20.80;1.00
29777;DHT22;16677;52.224;7.484;2022-09-09T10:05:26;20.70;1.00
29777;DHT22;16677;52.224;7.484;2022-09-09T10:08:15;20.50;1.00
29777;DHT22;16677;52.224;7.484;2022-09-09T10:21:56;20.50;1.00
29777;DHT22;16677;52.224;7.484;2022-09-09T10:27:32;21.00;99.90
29777;DHT22;16677;52.224;7.484;2022-09-09T10:30:14;21.30;99.90
29777;DHT22;16677;52.224;7.484;2022-09-09T10:38:18;20.70;1.00
29777;DHT22;16677;52.224;7.484;2022-09-09T10:46:31;20.70;99.90
29777;DHT22;16677;52.224;7.484;2022-09-09T10:52:22;21.00;99.90
29777;DHT22;16677;52.224;7.484;2022-09-09T10:54:56;20.90;99.90
29777;DHT22;16677;52.224;7.484;2022-09-09T10:57:47;21.00;99.90
29777;DHT22;16677;52.224;7.484;2022-09-09T11:00:23;21.00;99.90
29777;DHT22;16677;52.224;7.484;2022-09-09T11:03:21;21.10;99.90
29777;DHT22;16677;52.224;7.484;2022-09-09T11:06:00;20.90;99.90
29777;DHT22;16677;52.224;7.484;2022-09-09T11:08:29;21.50;99.90
29777;DHT22;16677;52.224;7.484;2022-09-09T11:19:28;21.90;99.90
29777;DHT22;16677;52.224;7.484;2022-09-09T11:22:00;22.10;99.90
29777;DHT22;16677;52.224;7.484;2022-09-09T11:24:42;22.00;99.90
29777;DHT22;16677;52.224;7.484;2022-09-09T11:41:03;21.20;99.90
29777;DHT22;16677;52.224;7.484;2022-09-09T11:43:39;21.50;99.90
29777;DHT22;16677;52.224;7.484;2022-09-09T11:46:08;21.30;99.90
29777;DHT22;16677;52.224;7.484;2022-09-09T11:51:09;21.50;99.90
29777;DHT22;16677;52.224;7.484;2022-09-09T11:53:59;21.50;99.90
29777;DHT22;16677;52.224;7.484;2022-09-09T11:56:29;21.10;99.90
29777;DHT22;16677;52.224;7.484;2022-09-09T12:01:34;21.10;99.90
29777;DHT22;16677;52.224;7.484;2022-09-09T12:09:43;21.30;99.90
29777;DHT22;16677;52.224;7.484;2022-09-09T12:14:54;21.10;99.90
29777;DHT22;16677;52.224;7.484;2022-09-09T12:17:26;21.40;99.90
29777;DHT22;16677;52.224;7.484;2022-09-09T12:25:52;22.20;99.90
29777;DHT22;16677;52.224;7.484;2022-09-09T12:33:46;21.60;99.90
29777;DHT22;16677;52.224;7.484;2022-09-09T12:36:19;21.20;99.90
29777;DHT22;16677;52.224;7.484;2022-09-09T12:38:48;21.20;99.90
29777;DHT22;16677;52.224;7.484;2022-09-09T12:41:22;21.20;99.90
29777;DHT22;16677;52.224;7.484;2022-09-09T12:43:50;21.20;99.90
29777;DHT22;16677;52.224;7.484;2022-09-09T12:46:44;20.30;1.00
29777;DHT22;16677;52.224;7.484;2022-09-09T12:51:53;19.20;1.00
29777;DHT22;16677;52.224;7.484;2022-09-09T12:54:21;19.00;1.00
29777;DHT22;16677;52.224;7.484;2022-09-09T12:56:48;19.20;1.00
29777;DHT22;16677;52.224;7.484;2022-09-09T12:59:26;19.30;1.00
29777;DHT22;16677;52.224;7.484;2022-09-09T13:01:59;19.60;1.00
29777;DHT22;16677;52.224;7.484;2022-09-09T13:04:26;19.80;1.00
29777;DHT22;16677;52.224;7.484;2022-09-09T13:06:53;19.90;1.00
29777;DHT22;16677;52.224;7.484;2022-09-09T13:09:22;20.00;1.00
29777;DHT22;16677;52.224;7.484;2022-09-09T13:11:52;20.20;1.00
29777;DHT22;16677;52.224;7.484;2022-09-09T13:14:31;20.40;1.00
29777;DHT22;16677;52.224;7.484;2022-09-09T13:17:00;20.30;1.00
29777;DHT22;16677;52.224;7.484;2022-09-09T13:19:33;20.30;1.00
29777;DHT22;16677;52.224;7.484;2022-09-09T13:22:12;20.60;1.00
29777;DHT22;16677;52.224;7.484;2022-09-09T13:24:39;20.90;1.00
29777;DHT22;16677;52.224;7.484;2022-09-09T13:29:56;20.90;1.00
29777;DHT22;16677;52.224;7.484;2022-09-09T13:32:25;21.00;1.00
29777;DHT22;16677;52.224;7.484;2022-09-09T13:34:58;21.20;99.90
29777;DHT22;16677;52.224;7.484;2022-09-09T13:39:56;21.20;99.90
29777;DHT22;16677;52.224;7.484;2022-09-09T13:42:29;21.80;99.90
29777;DHT22;16677;52.224;7.484;2022-09-09T13:44:58;22.00;99.90
29777;DHT22;16677;52.224;7.484;2022-09-09T13:47:35;21.10;99.90
29777;DHT22;16677;52.224;7.484;2022-09-09T13:50:22;21.60;99.90
29777;DHT22;16677;52.224;7.484;2022-09-09T13:52:52;21.30;99.90
29777;DHT22;16677;52.224;7.484;2022-09-09T13:55:21;20.90;99.90
29777;DHT22;16677;52.224;7.484;2022-09-09T13:58:00;21.00;99.90
29777;DHT22;16677;52.224;7.484;2022-09-09T14:00:33;20.70;99.90
29777;DHT22;16677;52.224;7.484;2022-09-09T14:03:00;20.40;99.90
29777;DHT22;16677;52.224;7.484;2022-09-09T14:05:32;20.30;99.90
29777;DHT22;16677;52.224;7.484;2022-09-09T14:07:59;20.40;1.00
29777;DHT22;16677;52.224;7.484;2022-09-09T14:10:29;20.20;1.00
29777;DHT22;16677;52.224;7.484;2022-09-09T14:12:57;20.10;1.00
29777;DHT22;16677;52.224;7.484;2022-09-09T14:15:24;20.20;1.00
29777;DHT22;16677;52.224;7.484;2022-09-09T14:17:51;19.90;1.00
29777;DHT22;16677;52.224;7.484;2022-09-09T14:20:18;19.90;1.00
29777;DHT22;16677;52.224;7.484;2022-09-09T14:22:46;19.80;1.00
29777;DHT22;16677;52.224;7.484;2022-09-09T14:25:13;19.60;1.00
29777;DHT22;16677;52.224;7.484;2022-09-09T14:27:41;19.50;1.00
29777;DHT22;16677;52.224;7.484;2022-09-09T14:30:09;19.40;1.00
29777;DHT22;16677;52.224;7.484;2022-09-09T14:32:36;19.40;1.00
29777;DHT22;16677;52.224;7.484;2022-09-09T14:35:04;19.10;1.00
29777;DHT22;16677;52.224;7.484;2022-09-09T14:37:31;18.50;1.00
29777;DHT22;16677;52.224;7.484;2022-09-09T14:39:59;17.90;99.90
29777;DHT22;16677;52.224;7.484;2022-09-09T14:42:28;17.90;99.90
29777;DHT22;16677;52.224;7.484;2022-09-09T14:44:56;17.60;1.00
29777;DHT22;16677;52.224;7.484;2022-09-09T14:47:24;17.50;1.00
29777;DHT22;16677;52.224;7.484;2022-09-09T14:49:51;17.40;99.90
29777;DHT22;16677;52.224;7.484;2022-09-09T14:52:18;17.40;99.90
29777;DHT22;16677;52.224;7.484;2022-09-09T14:54:45;17.30;1.00
29777;DHT22;16677;52.224;7.484;2022-09-09T14:57:13;17.20;1.00
29777;DHT22;16677;52.224;7.484;2022-09-09T14:59:40;17.10;99.90
29777;DHT22;16677;52.224;7.484;2022-09-09T15:02:08;17.10;99.90
29777;DHT22;16677;52.224;7.484;2022-09-09T15:04:35;17.30;99.90
29777;DHT22;16677;52.224;7.484;2022-09-09T15:07:02;17.30;1.00
29777;DHT22;16677;52.224;7.484;2022-09-09T15:09:30;17.50;1.00
29777;DHT22;16677;52.224;7.484;2022-09-09T15:11:57;17.70;99.90
29777;DHT22;16677;52.224;7.484;2022-09-09T15:14:24;17.70;1.00
29777;DHT22;16677;52.224;7.484;2022-09-09T15:16:52;18.00;1.00
29777;DHT22;16677;52.224;7.484;2022-09-09T15:19:20;18.20;99.90
29777;DHT22;16677;52.224;7.484;2022-09-09T15:21:47;18.30;99.90
29777;DHT22;16677;52.224;7.484;2022-09-09T15:24:17;18.30;99.90
29777;DHT22;16677;52.224;7.484;2022-09-09T15:26:44;18.40;58.30
29777;DHT22;16677;52.224;7.484;2022-09-09T15:29:11;18.80;4.40
29777;DHT22;16677;52.224;7.484;2022-09-09T15:31:38;19.00;1.00
29777;DHT22;16677;52.224;7.484;2022-09-09T15:34:07;18.90;1.00
29777;DHT22;16677;52.224;7.484;2022-09-09T15:36:44;19.10;1.00
29777;DHT22;16677;52.224;7.484;2022-09-09T15:39:16;19.20;1.00
29777;DHT22;16677;52.224;7.484;2022-09-09T15:41:45;19.40;1.00
29777;DHT22;16677;52.224;7.484;2022-09-09T15:44:14;19.50;1.00
29777;DHT22;16677;52.224;7.484;2022-09-09T15:46:49;19.60;1.00
29777;DHT22;16677;52.224;7.484;2022-09-09T15:49:25;19.70;1.00
29777;DHT22;16677;52.224;7.484;2022-09-09T15:51:54;19.60;1.00
29777;DHT22;16677;52.224;7.484;2022-09-09T15:54:23;19.60;1.00
29777;DHT22;16677;52.224;7.484;2022-09-09T15:56:56;19.60;1.00
29777;DHT22;16677;52.224;7.484;2022-09-09T15:59:24;19.70;1.00
29777;DHT22;16677;52.224;7.484;2022-09-09T16:01:52;19.60;1.00
29777;DHT22;16677;52.224;7.484;2022-09-09T16:04:19;19.70;1.00
29777;DHT22;16677;52.224;7.484;2022-09-09T16:07:00;19.70;1.00
29777;DHT22;16677;52.224;7.484;2022-09-09T16:09:28;19.60;1.00
29777;DHT22;16677;52.224;7.484;2022-09-09T16:11:57;19.70;1.00
29777;DHT22;16677;52.224;7.484;2022-09-09T16:14:25;19.80;1.00
29777;DHT22;16677;52.224;7.484;2022-09-09T16:16:52;19.80;1.00
29777;DHT22;16677;52.224;7.484;2022-09-09T16:19:20;19.80;1.00
29777;DHT22;16677;52.224;7.484;2022-09-09T16:21:48;19.70;1.00
29777;DHT22;16677;52.224;7.484;2022-09-09T16:24:18;19.40;1.00
29777;DHT22;16677;52.224;7.484;2022-09-09T16:26:49;19.40;1.00
29777;DHT22;16677;52.224;7.484;2022-09-09T16:29:18;19.20;1.00
29777;DHT22;16677;52.224;7.484;2022-09-09T16:31:46;19.10;1.00
29777;DHT22;16677;52.224;7.484;2022-09-09T16:34:16;19.00;1.00
29777;DHT22;16677;52.224;7.484;2022-09-09T16:36:45;18.90;1.00
29777;DHT22;16677;52.224;7.484;2022-09-09T16:39:16;19.00;1.00
29777;DHT22;16677;52.224;7.484;2022-09-09T16:41:44;19.30;1.00
29777;DHT22;16677;52.224;7.484;2022-09-09T16:44:14;19.40;1.00
29777;DHT22;16677;52.224;7.484;2022-09-09T16:46:43;19.50;1.00
29777;DHT22;16677;52.224;7.484;2022-09-09T16:49:12;19.40;1.00
29777;DHT22;16677;52.224;7.484;2022-09-09T16:51:42;19.30;1.00
29777;DHT22;16677;52.224;7.484;2022-09-09T16:54:14;19.20;1.00
29777;DHT22;16677;52.224;7.484;2022-09-09T16:56:45;18.80;1.00
29777;DHT22;16677;52.224;7.484;2022-09-09T16:59:18;18.50;1.00
29777;DHT22;16677;52.224;7.484;2022-09-09T17:01:47;18.40;1.00
29777;DHT22;16677;52.224;7.484;2022-09-09T17:04:21;18.10;1.00
29777;DHT22;16677;52.224;7.484;2022-09-09T17:06:52;18.00;1.00
29777;DHT22;16677;52.224;7.484;2022-09-09T17:09:20;18.10;1.00
29777;DHT22;16677;52.224;7.484;2022-09-09T17:12:03;18.10;1.00
29777;DHT22;16677;52.224;7.484;2022-09-09T17:14:30;18.20;1.00
29777;DHT22;16677;52.224;7.484;2022-09-09T17:16:57;18.10;1.00
29777;DHT22;16677;52.224;7.484;2022-09-09T17:19:44;17.90;1.00
29777;DHT22;16677;52.224;7.484;2022-09-09T17:22:12;17.80;1.00
29777;DHT22;16677;52.224;7.484;2022-09-09T17:24:43;17.80;1.00
29777;DHT22;16677;52.224;7.484;2022-09-09T17:27:11;17.90;1.00
29777;DHT22;16677;52.224;7.484;2022-09-09T17:29:39;17.80;1.00
29777;DHT22;16677;52.224;7.484;2022-09-09T17:32:07;17.80;1.00
29777;DHT22;16677;52.224;7.484;2022-09-09T17:34:34;17.70;1.00
29777;DHT22;16677;52.224;7.484;2022-09-09T17:37:02;17.60;1.00
29777;DHT22;16677;52.224;7.484;2022-09-09T17:39:32;17.50;1.00
29777;DHT22;16677;52.224;7.484;2022-09-09T17:42:00;17.50;1.00
29777;DHT22;16677;52.224;7.484;2022-09-09T17:44:27;17.50;1.00
29777;DHT22;16677;52.224;7.484;2022-09-09T17:46:59;17.50;1.00
29777;DHT22;16677;52.224;7.484;2022-09-09T17:49:27;17.50;1.00
29777;DHT22;16677;52.224;7.484;2022-09-09T17:51:55;17.50;1.00
29777;DHT22;16677;52.224;7.484;2022-09-09T17:54:23;17.40;1.00
29777;DHT22;16677;52.224;7.484;2022-09-09T17:56:50;17.30;1.00
29777;DHT22;16677;52.224;7.484;2022-09-09T17:59:18;17.40;1.00
29777;DHT22;16677;52.224;7.484;2022-09-09T18:01:47;17.30;1.00
29777;DHT22;16677;52.224;7.484;2022-09-09T18:04:16;17.20;1.00
29777;DHT22;16677;52.224;7.484;2022-09-09T18:06:45;17.20;1.00
29777;DHT22;16677;52.224;7.484;2022-09-09T18:09:15;17.10;1.00
29777;DHT22;16677;52.224;7.484;2022-09-09T18:11:45;17.10;1.00
29777;DHT22;16677;52.224;7.484;2022-09-09T18:14:19;17.00;1.00